Time;durP1;ratioP1;P1;durP2;ratioP2;P2;SDS_P1;SDS_P2;PMS_P1;PMS_P2;Temp;Humidity;BMP_temperature;BMP_pressure;BME280_temperature;BME280_humidity;BME280_pressure;Samples;Min_cycle;Max_cycle;Signal;HPM_P1;HPM_P2
2023/05/29 00:00:49;;;;;;;7.55;3.70;;;12.40;99.90;;;;;;5130768;27;20383;-59
2023/05/29 00:03:17;;;;;;;7.40;3.58;;;12.40;99.90;;;;;;5130131;27;20039;-59
2023/05/29 00:05:44;;;;;;;6.07;3.22;;;12.40;99.90;;;;;;5127747;27;20110;-60
2023/05/29 00:08:11;;;;;;;8.25;3.95;;;12.40;99.90;;;;;;5119712;27;20396;-59
2023/05/29 00:10:38;;;;;;;7.68;4.18;;;12.40;99.90;;;;;;5125832;27;20035;-59
2023/05/29 00:13:06;;;;;;;8.40;3.90;;;12.40;99.90;;;;;;5121521;27;20419;-57
2023/05/29 00:15:34;;;;;;;7.05;3.47;;;12.40;99.90;;;;;;5122548;28;20071;-59
2023/05/29 00:18:01;;;;;;;6.25;3.15;;;12.30;99.90;;;;;;5127818;28;20118;-58
2023/05/29 00:20:28;;;;;;;7.13;3.50;;;12.30;99.90;;;;;;5127847;28;20066;-59
2023/05/29 00:22:55;;;;;;;10.27;3.70;;;12.20;99.90;;;;;;5118437;28;20122;-56
2023/05/29 00:25:22;;;;;;;5.80;3.35;;;12.10;99.90;;;;;;5119361;28;20047;-60
2023/05/29 00:27:49;;;;;;;7.13;3.60;;;12.00;99.90;;;;;;5116811;28;20070;-59
2023/05/29 00:30:16;;;;;;;6.35;3.28;;;12.00;99.90;;;;;;5112719;28;20035;-59
2023/05/29 00:32:43;;;;;;;7.50;3.47;;;11.90;99.90;;;;;;5120044;28;20115;-59
2023/05/29 00:35:10;;;;;;;10.77;3.35;;;11.90;99.90;;;;;;5113637;28;20498;-59
2023/05/29 00:37:37;;;;;;;8.55;3.67;;;11.80;99.90;;;;;;5119216;28;20389;-59
2023/05/29 00:40:04;;;;;;;8.85;3.50;;;11.80;99.90;;;;;;5113581;28;20451;-59
2023/05/29 00:42:31;;;;;;;9.93;4.07;;;11.80;99.90;;;;;;5109581;28;20062;-56
2023/05/29 00:44:58;;;;;;;6.38;3.50;;;11.80;99.90;;;;;;5121992;28;20035;-59
2023/05/29 00:47:25;;;;;;;8.60;4.20;;;11.70;99.90;;;;;;5111447;28;20138;-58
2023/05/29 00:50:31;;;;;;;9.18;3.70;;;11.70;99.90;;;;;;5128423;22;20096;-62
2023/05/29 00:53:01;;;;;;;8.40;3.80;;;11.70;99.90;;;;;;5069581;28;20039;-61
2023/05/29 00:55:29;;;;;;;7.47;3.50;;;11.70;99.90;;;;;;5090614;28;20044;-59
2023/05/29 00:57:56;;;;;;;10.32;3.60;;;11.60;99.90;;;;;;5082396;28;20040;-61
2023/05/29 01:00:24;;;;;;;8.30;3.88;;;11.60;99.90;;;;;;5087739;28;20051;-61
2023/05/29 01:02:52;;;;;;;;;;;11.60;99.90;;;;;;5096538;28;20494;-60
2023/05/29 01:05:19;;;;;;;;;;;11.60;99.90;;;;;;5115364;28;19920;-60
2023/05/29 01:07:46;;;;;;;8.43;3.70;;;11.60;99.90;;;;;;5096927;28;19926;-61
2023/05/29 01:10:14;;;;;;;11.60;3.70;;;11.60;99.90;;;;;;5095884;28;20404;-60
2023/05/29 01:12:51;;;;;;;7.03;3.60;;;11.60;99.90;;;;;;5109747;28;20503;-61
2023/05/29 01:15:47;;;;;;;7.07;3.60;;;11.60;99.90;;;;;;5093447;28;20134;-61
2023/05/29 01:18:19;;;;;;;8.02;3.80;;;11.60;99.90;;;;;;5080064;28;20039;-61
2023/05/29 01:21:13;;;;;;;7.25;3.50;;;11.60;99.90;;;;;;5114073;28;20051;-61
2023/05/29 01:24:17;;;;;;;7.40;3.50;;;11.60;99.90;;;;;;5106007;28;20038;-61
2023/05/29 01:27:00;;;;;;;8.95;3.50;;;11.50;99.90;;;;;;5088269;28;20054;-61
2023/05/29 01:29:33;;;;;;;8.93;3.80;;;11.40;99.90;;;;;;5095465;28;20044;-60
2023/05/29 01:32:04;;;;;;;6.00;3.50;;;11.40;99.90;;;;;;5090935;28;20044;-60
2023/05/29 01:34:30;;;;;;;9.30;4.28;;;11.40;99.90;;;;;;5114603;28;20047;-60
2023/05/29 01:36:57;;;;;;;6.53;3.67;;;11.30;99.90;;;;;;5096191;28;20036;-61
2023/05/29 01:39:25;;;;;;;8.63;3.60;;;11.30;99.90;;;;;;5113700;28;20137;-61
2023/05/29 01:41:53;;;;;;;8.88;3.47;;;11.20;99.90;;;;;;5096016;28;20040;-61
2023/05/29 01:44:21;;;;;;;7.60;3.70;;;11.10;99.90;;;;;;5096133;28;20052;-60
2023/05/29 01:46:49;;;;;;;8.93;3.35;;;10.90;99.90;;;;;;5095326;28;20496;-61
2023/05/29 01:49:16;;;;;;;8.07;3.67;;;10.90;99.90;;;;;;5113237;28;20052;-60
2023/05/29 01:51:44;;;;;;;8.38;4.00;;;10.90;99.90;;;;;;5095864;28;20058;-61
2023/05/29 01:54:11;;;;;;;8.65;4.00;;;10.90;99.90;;;;;;5112406;28;20055;-61
2023/05/29 01:56:38;;;;;;;9.02;3.60;;;10.90;99.90;;;;;;5093394;28;20035;-59
2023/05/29 01:59:06;;;;;;;8.40;3.33;;;10.90;99.90;;;;;;5100953;28;20105;-61
2023/05/29 02:01:33;;;;;;;8.07;3.67;;;10.90;99.90;;;;;;5111627;28;20044;-58
2023/05/29 02:04:00;;;;;;;6.93;3.97;;;10.90;99.90;;;;;;5094560;28;20054;-61
2023/05/29 02:06:27;;;;;;;8.00;3.75;;;10.80;99.90;;;;;;5111431;27;20052;-59
2023/05/29 02:08:53;;;;;;;7.85;3.38;;;10.90;99.90;;;;;;5096047;28;20047;-61
2023/05/29 02:11:21;;;;;;;12.70;4.32;;;10.80;99.90;;;;;;5113601;28;20054;-61
2023/05/29 02:13:48;;;;;;;8.95;4.68;;;10.80;99.90;;;;;;5096418;28;20035;-60
2023/05/29 02:16:15;;;;;;;7.13;4.03;;;10.80;99.90;;;;;;5094480;28;20434;-60
2023/05/29 02:18:43;;;;;;;8.52;4.45;;;10.80;99.90;;;;;;5100720;28;20089;-61
2023/05/29 02:21:11;;;;;;;10.02;4.40;;;10.90;99.90;;;;;;5107102;28;20059;-61
2023/05/29 02:23:38;;;;;;;7.40;4.47;;;10.90;99.90;;;;;;5095123;28;20040;-59
2023/05/29 02:26:05;;;;;;;9.32;3.50;;;10.90;99.90;;;;;;5094583;28;20143;-59
2023/05/29 02:28:32;;;;;;;5.70;3.47;;;10.90;99.90;;;;;;5095269;28;20047;-60
2023/05/29 02:30:58;;;;;;;8.40;3.83;;;10.90;99.90;;;;;;5094787;28;20556;-57
2023/05/29 02:33:25;;;;;;;7.97;3.90;;;10.90;99.90;;;;;;5095091;28;20044;-57
2023/05/29 02:35:53;;;;;;;9.27;3.80;;;10.90;99.90;;;;;;5095046;28;20039;-60
2023/05/29 02:38:20;;;;;;;7.30;3.42;;;10.90;99.90;;;;;;5113172;28;20045;-56
2023/05/29 02:40:47;;;;;;;7.85;3.67;;;10.90;99.90;;;;;;5095143;28;20046;-56
2023/05/29 02:43:14;;;;;;;9.48;4.18;;;10.90;99.90;;;;;;5103328;28;20035;-59
2023/05/29 02:45:41;;;;;;;10.60;4.57;;;10.80;99.90;;;;;;5092813;28;20032;-58
2023/05/29 02:48:08;;;;;;;14.50;4.60;;;10.90;99.90;;;;;;5111444;28;20088;-57
2023/05/29 02:50:36;;;;;;;10.82;4.03;;;10.80;99.90;;;;;;5111545;28;20044;-57
2023/05/29 02:53:03;;;;;;;9.02;4.35;;;10.80;99.90;;;;;;5094252;28;20043;-60
2023/05/29 02:55:32;;;;;;;7.63;3.85;;;10.80;99.90;;;;;;5094289;28;20058;-57
2023/05/29 02:57:59;;;;;;;5.78;3.40;;;10.70;99.90;;;;;;5113204;28;20028;-58
2023/05/29 03:00:28;;;;;;;9.57;4.15;;;10.70;99.90;;;;;;5093355;28;20143;-59
2023/05/29 03:02:57;;;;;;;7.53;4.20;;;10.80;99.90;;;;;;5094719;28;20479;-57
2023/05/29 03:05:25;;;;;;;7.95;4.30;;;10.80;99.90;;;;;;5112139;28;20039;-56
2023/05/29 03:07:52;;;;;;;11.15;4.30;;;10.70;99.90;;;;;;5093190;28;20050;-58
2023/05/29 03:10:20;;;;;;;8.13;3.75;;;10.70;99.90;;;;;;5094661;28;20051;-56
2023/05/29 03:12:47;;;;;;;9.27;4.13;;;10.60;99.90;;;;;;5101926;28;20054;-58
2023/05/29 03:15:14;;;;;;;7.38;4.28;;;10.60;99.90;;;;;;5111538;28;20127;-60
2023/05/29 03:17:41;;;;;;;6.90;4.05;;;10.60;99.90;;;;;;5093279;28;20163;-60
2023/05/29 03:20:13;;;;;;;8.73;3.92;;;10.50;99.90;;;;;;5094376;28;20483;-56
2023/05/29 03:22:40;;;;;;;13.60;4.38;;;10.50;99.90;;;;;;5112406;28;20407;-60
2023/05/29 03:25:08;;;;;;;7.80;4.30;;;10.40;99.90;;;;;;5093346;28;20044;-61
2023/05/29 03:27:36;;;;;;;6.35;3.80;;;10.40;99.90;;;;;;5091802;28;20492;-60
2023/05/29 03:30:11;;;;;;;7.38;4.28;;;10.40;99.90;;;;;;5094281;28;20086;-58
2023/05/29 03:32:38;;;;;;;9.27;4.22;;;10.30;99.90;;;;;;5092870;28;20047;-59
2023/05/29 03:35:07;;;;;;;6.13;3.83;;;10.30;99.90;;;;;;5093435;28;20525;-57
2023/05/29 03:37:36;;;;;;;10.52;4.40;;;10.30;99.90;;;;;;5111025;28;20071;-57
2023/05/29 03:40:04;;;;;;;9.85;4.05;;;10.30;99.90;;;;;;5094251;28;20373;-56
2023/05/29 03:42:31;;;;;;;8.93;3.78;;;10.30;99.90;;;;;;5093752;28;20043;-58
2023/05/29 03:44:59;;;;;;;7.63;4.32;;;10.20;99.90;;;;;;5093747;28;20092;-61
2023/05/29 03:47:27;;;;;;;8.77;4.57;;;10.10;99.90;;;;;;5093525;28;20404;-60
2023/05/29 03:49:55;;;;;;;11.02;4.45;;;10.00;99.90;;;;;;5093035;28;20047;-56
2023/05/29 03:52:22;;;;;;;7.15;4.20;;;10.00;99.90;;;;;;5093483;28;20055;-60
2023/05/29 03:54:49;;;;;;;10.48;4.80;;;10.00;99.90;;;;;;5093835;28;20496;-59
2023/05/29 03:57:16;;;;;;;7.88;4.35;;;10.00;99.90;;;;;;5093670;28;20051;-60
2023/05/29 03:59:43;;;;;;;8.13;4.13;;;10.00;99.90;;;;;;5092920;28;20384;-56
2023/05/29 04:02:10;;;;;;;6.65;3.97;;;10.10;99.90;;;;;;5093419;28;20657;-59
2023/05/29 04:04:40;;;;;;;9.05;4.00;;;10.20;99.90;;;;;;5093698;28;20048;-61
2023/05/29 04:07:07;;;;;;;6.78;3.95;;;10.20;99.90;;;;;;5111496;28;20039;-56
2023/05/29 04:09:34;;;;;;;10.48;4.50;;;10.30;99.90;;;;;;5093682;28;20562;-57
2023/05/29 04:12:05;;;;;;;7.03;4.18;;;10.30;99.90;;;;;;5093512;28;20050;-61
2023/05/29 04:14:33;;;;;;;12.88;4.10;;;10.40;99.90;;;;;;5111921;28;20031;-58
2023/05/29 04:17:00;;;;;;;12.63;4.97;;;10.40;99.90;;;;;;5092938;28;20035;-60
2023/05/29 04:19:26;;;;;;;9.15;4.20;;;10.40;99.90;;;;;;5093593;28;20055;-60
2023/05/29 04:21:53;;;;;;;9.13;4.60;;;10.50;99.90;;;;;;5090480;28;20067;-56
2023/05/29 04:24:20;;;;;;;12.35;5.43;;;10.50;99.90;;;;;;5110266;28;20575;-58
2023/05/29 04:26:47;;;;;;;11.32;5.10;;;10.60;99.90;;;;;;5110638;28;20395;-60
2023/05/29 04:29:14;;;;;;;12.02;5.80;;;10.70;99.90;;;;;;5110291;28;20035;-60
2023/05/29 04:31:44;;;;;;;14.50;6.28;;;10.80;99.90;;;;;;5103517;28;20092;-61
2023/05/29 04:34:11;;;;;;;9.52;6.45;;;10.80;99.90;;;;;;5093413;28;20047;-58
2023/05/29 04:36:38;;;;;;;10.98;6.05;;;10.90;99.90;;;;;;5094205;28;20511;-60
2023/05/29 04:39:09;;;;;;;10.68;4.82;;;11.00;99.90;;;;;;5096140;28;20078;-56
2023/05/29 04:41:37;;;;;;;10.82;4.70;;;11.10;99.90;;;;;;5097161;28;20135;-61
2023/05/29 04:44:08;;;;;;;8.27;4.50;;;11.00;99.90;;;;;;5097383;28;20043;-60
2023/05/29 04:46:43;;;;;;;11.90;6.03;;;11.00;99.90;;;;;;5115338;27;20130;-61
2023/05/29 04:49:12;;;;;;;10.02;5.78;;;11.10;99.90;;;;;;5114520;28;20122;-61
2023/05/29 04:51:42;;;;;;;11.88;6.10;;;11.20;99.90;;;;;;5110968;28;20052;-60
2023/05/29 04:54:10;;;;;;;12.30;6.30;;;11.30;99.90;;;;;;5097201;28;20070;-61
2023/05/29 04:56:40;;;;;;;12.43;6.43;;;11.40;99.90;;;;;;5096165;28;20090;-60
2023/05/29 04:59:08;;;;;;;12.68;5.82;;;11.50;99.90;;;;;;5096815;28;20042;-61
2023/05/29 05:01:35;;;;;;;12.25;5.53;;;11.50;99.90;;;;;;5099833;28;20492;-61
2023/05/29 05:04:02;;;;;;;9.80;5.13;;;11.60;99.90;;;;;;5097233;28;20039;-61
2023/05/29 05:06:29;;;;;;;8.32;4.88;;;11.70;99.90;;;;;;5114753;28;20042;-62
2023/05/29 05:08:57;;;;;;;9.32;5.00;;;11.80;99.90;;;;;;5096469;28;20507;-61
2023/05/29 05:11:24;;;;;;;11.95;5.70;;;11.80;99.90;;;;;;5097136;28;20043;-61
2023/05/29 05:13:51;;;;;;;11.05;5.68;;;11.90;99.90;;;;;;5096793;28;20039;-61
2023/05/29 05:16:18;;;;;;;10.38;5.70;;;11.90;99.90;;;;;;5096267;28;20046;-60
2023/05/29 05:18:45;;;;;;;8.65;5.72;;;12.00;99.90;;;;;;5096698;28;20044;-60
2023/05/29 05:21:12;;;;;;;11.63;6.05;;;12.10;99.90;;;;;;5095786;28;20487;-61
2023/05/29 05:23:40;;;;;;;10.25;5.43;;;12.10;99.90;;;;;;5094763;28;20496;-61
2023/05/29 05:26:25;;;;;;;10.35;6.20;;;12.20;99.90;;;;;;5095011;28;20044;-59
2023/05/29 05:28:52;;;;;;;9.15;5.35;;;12.30;99.90;;;;;;5113489;28;20089;-61
2023/05/29 05:31:19;;;;;;;11.00;6.25;;;12.40;99.90;;;;;;5095964;28;20036;-61
2023/05/29 05:33:46;;;;;;;12.45;7.07;;;12.50;99.90;;;;;;5095039;28;20107;-59
2023/05/29 05:36:13;;;;;;;10.57;6.18;;;12.60;99.90;;;;;;5101885;28;20131;-60
2023/05/29 05:38:41;;;;;;;10.60;6.05;;;12.60;99.90;;;;;;5095644;28;20127;-61
2023/05/29 05:41:07;;;;;;;9.52;6.18;;;12.70;99.90;;;;;;5096371;28;20438;-61
2023/05/29 05:43:34;;;;;;;9.15;6.10;;;12.70;99.90;;;;;;5113590;28;20039;-61
2023/05/29 05:46:12;;;;;;;9.68;5.82;;;12.70;99.90;;;;;;5096170;28;20047;-61
2023/05/29 05:48:40;;;;;;;9.02;5.70;;;12.70;99.90;;;;;;5103576;28;20048;-60
2023/05/29 05:51:07;;;;;;;13.52;5.88;;;12.80;99.90;;;;;;5095071;28;20035;-60
2023/05/29 05:53:34;;;;;;;10.98;6.10;;;12.80;99.90;;;;;;5096084;28;20045;-60
2023/05/29 05:56:02;;;;;;;;;;;12.90;99.90;;;;;;5114481;28;20059;-60
2023/05/29 05:58:29;;;;;;;11.13;6.65;;;12.90;99.90;;;;;;5095913;28;19919;-61
2023/05/29 06:00:57;;;;;;;;;;;13.00;99.90;;;;;;5095872;28;20442;-62
2023/05/29 06:03:26;;;;;;;;;;;13.10;99.90;;;;;;5108129;28;19919;-60
2023/05/29 06:06:00;;;;;;;12.00;5.75;;;13.20;99.90;;;;;;5096749;28;19927;-61
2023/05/29 06:08:28;;;;;;;11.27;6.93;;;13.20;99.90;;;;;;5110886;28;20044;-61
2023/05/29 06:10:55;;;;;;;11.98;6.15;;;13.30;99.90;;;;;;5095394;28;20048;-61
2023/05/29 06:13:23;;;;;;;14.07;6.30;;;13.30;99.90;;;;;;5086448;28;20046;-61
2023/05/29 06:15:55;;;;;;;12.93;6.47;;;13.30;99.90;;;;;;5095551;28;20042;-61
2023/05/29 06:18:23;;;;;;;11.10;6.03;;;13.40;99.90;;;;;;5094234;28;20130;-62
2023/05/29 06:20:50;;;;;;;13.68;6.93;;;13.50;99.90;;;;;;5094988;28;20071;-61
2023/05/29 06:23:17;;;;;;;9.93;5.88;;;13.60;99.90;;;;;;5095320;28;20044;-61
2023/05/29 06:25:44;;;;;;;9.93;6.15;;;13.70;99.90;;;;;;5107513;28;20040;-61
2023/05/29 06:28:11;;;;;;;11.57;6.38;;;13.80;99.90;;;;;;5095294;28;20396;-62
2023/05/29 06:30:39;;;;;;;17.10;7.13;;;13.90;99.90;;;;;;5103511;28;20476;-61
2023/05/29 06:33:07;;;;;;;14.23;6.57;;;14.10;99.90;;;;;;5112454;28;20435;-60
2023/05/29 06:35:36;;;;;;;12.32;7.28;;;14.10;99.90;;;;;;5093756;28;20549;-61
2023/05/29 06:38:03;;;;;;;10.73;5.97;;;14.20;99.90;;;;;;5112360;28;20449;-61
2023/05/29 06:40:30;;;;;;;10.82;5.80;;;14.40;99.90;;;;;;5094956;28;20127;-60
2023/05/29 06:42:57;;;;;;;10.80;6.82;;;14.60;99.90;;;;;;5102392;28;20067;-61
2023/05/29 06:45:45;;;;;;;10.65;6.70;;;14.80;99.90;;;;;;5094654;28;20047;-58
2023/05/29 06:48:12;;;;;;;11.43;6.07;;;15.00;99.90;;;;;;5108522;22;20043;-60
2023/05/29 06:50:40;;;;;;;12.05;5.85;;;15.10;99.90;;;;;;5063054;22;20037;-59
2023/05/29 06:53:35;;;;;;;9.88;5.72;;;15.10;99.90;;;;;;5052512;28;20135;-59
2023/05/29 06:56:02;;;;;;;11.27;5.78;;;15.20;99.90;;;;;;5054119;28;20037;-57
2023/05/29 06:58:31;;;;;;;11.50;5.60;;;15.40;99.90;;;;;;5054153;28;20514;-57
2023/05/29 07:00:58;;;;;;;10.35;5.07;;;15.50;99.90;;;;;;5059030;28;20386;-59
2023/05/29 07:03:31;;;;;;;15.20;5.88;;;15.60;99.90;;;;;;5030486;28;20071;-59
2023/05/29 07:06:00;;;;;;;13.25;5.97;;;15.70;99.90;;;;;;5034688;28;20049;-60
2023/05/29 07:08:27;;;;;;;9.68;6.10;;;15.80;99.90;;;;;;5041822;28;20045;-59
2023/05/29 07:10:55;;;;;;;11.93;6.10;;;16.00;99.90;;;;;;5033885;28;20037;-59
2023/05/29 07:13:25;;;;;;;11.48;5.65;;;16.00;99.90;;;;;;5018431;28;20430;-56
2023/05/29 07:15:52;;;;;;;9.18;5.80;;;16.20;99.90;;;;;;5049243;28;20584;-60
2023/05/29 07:18:25;;;;;;;7.93;5.70;;;16.30;99.90;;;;;;5034290;28;20049;-57
2023/05/29 07:20:51;;;;;;;10.35;5.15;;;16.30;99.90;;;;;;5033499;28;20144;-56
2023/05/29 07:23:20;;;;;;;13.35;6.50;;;16.50;99.90;;;;;;5032064;28;20557;-56
2023/05/29 07:25:47;;;;;;;13.00;5.85;;;16.70;99.90;;;;;;5050153;28;20052;-60
2023/05/29 07:28:14;;;;;;;8.52;5.53;;;16.80;99.90;;;;;;5032671;28;20039;-56
2023/05/29 07:30:47;;;;;;;11.70;5.70;;;17.00;99.90;;;;;;5048046;28;20124;-57
2023/05/29 07:33:13;;;;;;;11.88;5.68;;;17.10;99.90;;;;;;5042771;28;20065;-58
2023/05/29 07:35:40;;;;;;;8.07;5.45;;;17.10;99.90;;;;;;5030886;28;20095;-59
2023/05/29 07:38:08;;;;;;;9.68;5.80;;;17.20;99.90;;;;;;5034136;28;20047;-57
2023/05/29 07:40:35;;;;;;;8.10;5.10;;;17.30;99.90;;;;;;5032856;28;20053;-56
2023/05/29 07:43:20;;;;;;;12.10;6.25;;;17.50;99.90;;;;;;5051978;28;20068;-57
2023/05/29 07:45:53;;;;;;;9.30;6.00;;;17.60;99.90;;;;;;5033315;28;20052;-57
2023/05/29 07:48:20;;;;;;;12.02;5.57;;;17.80;99.90;;;;;;5049408;28;20067;-59
2023/05/29 07:50:50;;;;;;;10.60;5.25;;;17.80;99.90;;;;;;5049986;28;20128;-56
2023/05/29 07:53:18;;;;;;;9.63;5.95;;;17.90;99.90;;;;;;5033479;28;20545;-57
2023/05/29 07:55:46;;;;;;;11.68;6.15;;;18.00;99.90;;;;;;5038699;28;20041;-58
2023/05/29 07:58:13;;;;;;;13.18;5.47;;;18.10;99.90;;;;;;5033718;28;20040;-58
2023/05/29 08:00:40;;;;;;;9.75;5.68;;;18.10;99.90;;;;;;5047811;28;20444;-56
2023/05/29 08:03:08;;;;;;;13.38;5.88;;;18.40;99.90;;;;;;5033592;28;20557;-59
2023/05/29 08:05:53;;;;;;;10.15;5.40;;;18.20;99.90;;;;;;5050118;28;20052;-56
2023/05/29 08:08:21;;;;;;;14.43;6.35;;;18.40;99.90;;;;;;5033661;28;20123;-59
2023/05/29 08:10:53;;;;;;;11.43;5.85;;;18.50;99.90;;;;;;5031183;28;20061;-60
2023/05/29 08:13:20;;;;;;;11.93;6.45;;;18.60;99.90;;;;;;5046056;28;20049;-57
2023/05/29 08:15:47;;;;;;;10.07;5.80;;;18.70;99.90;;;;;;5043695;28;20536;-59
2023/05/29 08:18:14;;;;;;;8.98;5.32;;;18.70;99.90;;;;;;5047298;28;20057;-59
2023/05/29 08:20:42;;;;;;;10.30;5.68;;;18.70;99.90;;;;;;5050031;28;20449;-56
2023/05/29 08:23:09;;;;;;;9.75;5.72;;;18.80;99.90;;;;;;5050287;28;20039;-59
2023/05/29 08:25:36;;;;;;;10.73;6.22;;;18.90;99.90;;;;;;5049117;28;20124;-57
2023/05/29 08:28:03;;;;;;;9.48;5.47;;;19.00;99.90;;;;;;5048210;28;20044;-57
2023/05/29 08:30:29;;;;;;;12.48;6.22;;;19.00;99.90;;;;;;5047154;28;20036;-57
2023/05/29 08:32:56;;;;;;;11.73;5.95;;;19.20;99.90;;;;;;5041367;28;20045;-60
2023/05/29 08:35:23;;;;;;;14.65;6.05;;;19.40;99.90;;;;;;5045400;28;20048;-57
2023/05/29 08:37:50;;;;;;;11.70;5.78;;;19.50;99.90;;;;;;5051100;28;20041;-58
2023/05/29 08:40:17;;;;;;;9.68;4.95;;;19.60;99.90;;;;;;5050769;28;20437;-59
2023/05/29 08:42:56;;;;;;;11.68;6.30;;;19.50;99.90;;;;;;5049335;28;20037;-58
2023/05/29 08:45:24;;;;;;;8.00;5.65;;;19.60;99.90;;;;;;5044072;28;20093;-57
2023/05/29 08:47:53;;;;;;;13.00;5.93;;;19.60;99.90;;;;;;5051165;28;20481;-59
2023/05/29 08:50:21;;;;;;;10.82;6.03;;;19.60;99.90;;;;;;5050961;28;20041;-57
2023/05/29 08:52:48;;;;;;;13.45;5.80;;;19.70;99.90;;;;;;5050759;28;20393;-60
2023/05/29 08:55:16;;;;;;;8.52;5.57;;;19.70;99.90;;;;;;5048748;28;20051;-58
2023/05/29 08:57:43;;;;;;;9.65;5.78;;;19.70;99.90;;;;;;5021902;28;20490;-60
2023/05/29 09:00:15;;;;;;;12.15;6.05;;;19.70;99.90;;;;;;5049248;28;20048;-59
2023/05/29 09:02:45;;;;;;;10.02;5.57;;;19.80;99.90;;;;;;5033108;28;20128;-59
2023/05/29 09:05:13;;;;;;;11.63;5.55;;;19.90;99.90;;;;;;5049876;28;20051;-57
2023/05/29 09:07:40;;;;;;;9.73;5.72;;;20.00;99.90;;;;;;5045853;28;20084;-59
2023/05/29 09:10:08;;;;;;;12.45;5.75;;;20.10;99.90;;;;;;5050489;28;20112;-59
2023/05/29 09:12:36;;;;;;;12.48;5.90;;;20.10;99.90;;;;;;5032706;28;20531;-60
2023/05/29 09:15:07;;;;;;;8.25;5.18;;;20.10;99.90;;;;;;5042550;28;20490;-59
2023/05/29 09:17:34;;;;;;;11.55;5.78;;;20.00;99.90;;;;;;5049182;28;20036;-60
2023/05/29 09:20:05;;;;;;;;;;;19.90;99.90;;;;;;5033441;28;20405;-59
2023/05/29 09:22:32;;;;;;;13.23;6.47;;;20.10;99.90;;;;;;5051501;28;20517;-59
2023/05/29 09:24:59;;;;;;;11.80;5.35;;;20.40;99.90;;;;;;5052312;28;20044;-56
2023/05/29 09:27:26;;;;;;;;;;;20.50;99.90;;;;;;5053140;28;20095;-57
2023/05/29 09:29:53;;;;;;;8.02;4.32;;;20.50;99.90;;;;;;5053601;28;20414;-60
2023/05/29 09:32:21;;;;;;;8.65;4.45;;;20.40;99.90;;;;;;5054258;28;20501;-59
2023/05/29 09:34:48;;;;;;;7.82;5.10;;;20.40;99.90;;;;;;5052952;28;20045;-59
2023/05/29 09:37:15;;;;;;;14.32;5.18;;;20.50;99.90;;;;;;5053542;28;20041;-60
2023/05/29 09:39:53;;;;;;;12.70;5.63;;;20.40;99.90;;;;;;5046537;28;20072;-58
2023/05/29 09:42:21;;;;;;;10.48;5.18;;;20.40;99.90;;;;;;5049011;28;20037;-59
2023/05/29 09:44:51;;;;;;;11.30;5.25;;;20.50;99.90;;;;;;5050067;28;20104;-60
2023/05/29 09:47:19;;;;;;;13.00;5.63;;;20.50;99.90;;;;;;5043141;28;20406;-56
2023/05/29 09:49:46;;;;;;;11.23;5.57;;;20.60;99.90;;;;;;5053125;28;20049;-59
2023/05/29 09:52:16;;;;;;;;;;;20.80;99.90;;;;;;5053381;28;20037;-59
2023/05/29 09:54:46;;;;;;;10.75;5.82;;;20.90;99.90;;;;;;5053589;28;19920;-59
2023/05/29 09:57:14;;;;;;;7.38;4.50;;;20.90;99.90;;;;;;5048602;28;20037;-59
2023/05/29 09:59:46;;;;;;;10.35;5.43;;;21.10;99.90;;;;;;5053496;28;20049;-59
2023/05/29 10:02:15;;;;;;;14.60;4.97;;;21.20;99.90;;;;;;5052743;28;20041;-59
2023/05/29 10:04:43;;;;;;;9.25;4.68;;;21.30;99.90;;;;;;5052666;28;20124;-58
2023/05/29 10:07:25;;;;;;;12.57;5.28;;;21.30;99.90;;;;;;5051110;28;20040;-59
2023/05/29 10:09:58;;;;;;;9.45;5.38;;;21.30;99.90;;;;;;5053015;28;20041;-59
2023/05/29 10:12:27;;;;;;;8.23;5.30;;;21.40;99.90;;;;;;5052113;28;20049;-59
2023/05/29 10:14:59;;;;;;;9.90;5.35;;;21.40;99.90;;;;;;5050735;28;20048;-60
2023/05/29 10:17:32;;;;;;;9.15;5.07;;;21.40;99.90;;;;;;5052861;28;20052;-59
2023/05/29 10:20:02;;;;;;;8.98;5.22;;;21.30;99.90;;;;;;5050343;28;20421;-58
2023/05/29 10:22:31;;;;;;;9.50;5.25;;;21.40;99.90;;;;;;5050074;28;20041;-60
2023/05/29 10:24:59;;;;;;;11.57;5.65;;;21.40;99.90;;;;;;5049344;28;20131;-60
2023/05/29 10:27:26;;;;;;;9.60;5.35;;;21.40;99.90;;;;;;5051612;28;20056;-56
2023/05/29 10:30:17;;;;;;;8.30;4.75;;;21.50;99.90;;;;;;5051061;28;20660;-57
2023/05/29 10:33:02;;;;;;;15.18;5.38;;;21.60;99.90;;;;;;5049277;28;20037;-60
2023/05/29 10:35:40;;;;;;;10.18;4.97;;;21.90;99.90;;;;;;5050440;28;20150;-61
2023/05/29 10:38:16;;;;;;;11.68;5.13;;;21.90;99.90;;;;;;5051615;28;20505;-59
2023/05/29 10:40:43;;;;;;;11.20;5.18;;;21.90;99.90;;;;;;5050833;28;20060;-59
2023/05/29 10:43:31;;;;;;;8.27;4.47;;;22.00;99.90;;;;;;5050795;28;20033;-58
2023/05/29 10:45:58;;;;;;;7.38;4.60;;;22.00;98.80;;;;;;5052055;28;20052;-59
2023/05/29 10:48:28;;;;;;;12.40;5.40;;;22.10;99.70;;;;;;5050662;28;20103;-60
2023/05/29 10:50:55;;;;;;;7.30;4.65;;;22.20;98.80;;;;;;5050675;28;20033;-59
2023/05/29 10:53:31;;;;;;;8.57;4.70;;;22.30;99.90;;;;;;5047877;28;20485;-59
2023/05/29 10:56:02;;;;;;;7.93;4.80;;;22.30;98.60;;;;;;5037145;28;20146;-59
2023/05/29 10:58:30;;;;;;;6.53;4.47;;;22.20;97.80;;;;;;5049385;28;20051;-59
2023/05/29 11:00:58;;;;;;;8.63;4.55;;;22.30;97.00;;;;;;5050875;28;20075;-59
2023/05/29 11:03:30;;;;;;;7.90;4.47;;;22.30;97.50;;;;;;5048275;28;20041;-56
2023/05/29 11:06:05;;;;;;;7.55;4.90;;;22.50;96.40;;;;;;5050928;28;20044;-58
2023/05/29 11:08:35;;;;;;;11.02;5.10;;;22.50;95.80;;;;;;5050061;28;20157;-60
2023/05/29 11:11:03;;;;;;;8.35;4.93;;;22.50;95.80;;;;;;5051109;28;20047;-59
2023/05/29 11:13:34;;;;;;;7.43;4.05;;;22.60;96.40;;;;;;5051234;28;20127;-59
2023/05/29 11:16:24;;;;;;;7.43;4.82;;;22.80;97.40;;;;;;5048974;28;20045;-58
2023/05/29 11:18:52;;;;;;;8.15;4.43;;;23.00;97.70;;;;;;5051606;28;20494;-60
2023/05/29 11:21:34;;;;;;;7.63;5.00;;;22.90;95.70;;;;;;5050591;28;20127;-58
2023/05/29 11:24:03;;;;;;;7.47;4.40;;;22.80;95.10;;;;;;5050159;28;20490;-60
2023/05/29 11:26:36;;;;;;;7.75;4.47;;;22.80;95.80;;;;;;5028859;28;20128;-60
2023/05/29 11:29:05;;;;;;;7.18;4.68;;;22.90;96.20;;;;;;5051152;28;20044;-58
2023/05/29 11:31:34;;;;;;;9.32;4.97;;;23.10;95.70;;;;;;5050806;28;20061;-59
2023/05/29 11:34:05;;;;;;;8.15;4.78;;;23.20;96.00;;;;;;5050399;28;20041;-60
2023/05/29 11:36:33;;;;;;;10.73;4.72;;;23.20;95.70;;;;;;5051154;28;20041;-59
2023/05/29 11:39:01;;;;;;;9.25;5.47;;;23.10;95.60;;;;;;5050366;28;20041;-59
2023/05/29 11:41:27;;;;;;;8.05;5.10;;;23.20;95.30;;;;;;5050817;28;20060;-59
2023/05/29 11:44:05;;;;;;;6.82;5.07;;;23.20;95.90;;;;;;5053380;28;20045;-59
2023/05/29 11:46:34;;;;;;;7.80;4.78;;;23.40;95.40;;;;;;5057451;28;20391;-60
2023/05/29 11:49:01;;;;;;;6.90;4.65;;;23.50;95.60;;;;;;5049500;28;20036;-56
2023/05/29 11:51:28;;;;;;;9.90;5.00;;;23.50;94.90;;;;;;5050865;28;20095;-58
2023/05/29 11:53:58;;;;;;;5.88;4.30;;;23.30;94.80;;;;;;5050543;28;20482;-59
2023/05/29 11:56:26;;;;;;;7.93;5.18;;;23.40;95.20;;;;;;5049509;28;20045;-61
2023/05/29 11:58:57;;;;;;;7.28;4.75;;;23.50;95.00;;;;;;5050675;28;20512;-60
2023/05/29 12:01:25;;;;;;;9.40;5.07;;;23.50;95.50;;;;;;5050075;28;20622;-59
2023/05/29 12:03:52;;;;;;;12.50;5.05;;;23.70;93.50;;;;;;5049214;28;20052;-58
2023/05/29 12:06:38;;;;;;;10.73;4.38;;;23.60;94.80;;;;;;5050614;28;20112;-58
2023/05/29 12:09:05;;;;;;;8.07;4.97;;;23.50;93.30;;;;;;5049448;28;20045;-56
2023/05/29 12:11:34;;;;;;;10.52;4.97;;;23.40;93.30;;;;;;5050698;28;20045;-58
2023/05/29 12:14:01;;;;;;;9.43;5.10;;;23.40;94.00;;;;;;5049153;28;20040;-56
2023/05/29 12:16:32;;;;;;;9.80;4.78;;;23.40;93.90;;;;;;5048062;28;20053;-60
2023/05/29 12:18:59;;;;;;;6.72;4.63;;;23.30;93.70;;;;;;5049902;28;20088;-59
2023/05/29 12:21:27;;;;;;;11.55;4.82;;;23.30;93.50;;;;;;5049993;28;20049;-60
2023/05/29 12:23:54;;;;;;;10.73;5.20;;;23.30;92.60;;;;;;5051139;28;20056;-58
2023/05/29 12:26:39;;;;;;;8.10;4.65;;;23.50;93.30;;;;;;5049771;28;20049;-59
2023/05/29 12:29:06;;;;;;;9.15;4.78;;;23.60;93.20;;;;;;5051196;28;20441;-58
2023/05/29 12:31:34;;;;;;;8.48;4.35;;;23.50;91.90;;;;;;5050580;28;20397;-59
2023/05/29 12:34:12;;;;;;;8.18;4.43;;;23.50;93.50;;;;;;5050981;28;20051;-57
2023/05/29 12:36:42;;;;;;;11.73;5.03;;;23.50;91.80;;;;;;5048716;28;20041;-60
2023/05/29 12:39:09;;;;;;;8.10;4.40;;;23.60;92.70;;;;;;5043451;28;20045;-58
2023/05/29 12:41:37;;;;;;;11.65;5.30;;;23.50;92.30;;;;;;5050192;28;20482;-56
2023/05/29 12:44:06;;;;;;;6.63;4.32;;;23.60;92.90;;;;;;5050780;28;20040;-59
2023/05/29 12:46:38;;;;;;;9.25;5.22;;;23.80;92.20;;;;;;5050944;28;20102;-59
2023/05/29 12:49:15;;;;;;;8.15;4.75;;;24.00;91.90;;;;;;5049487;28;20087;-56
2023/05/29 12:51:43;;;;;;;8.43;5.05;;;24.00;90.50;;;;;;5050842;28;20037;-59
2023/05/29 12:54:11;;;;;;;6.97;4.00;;;23.90;90.10;;;;;;5050895;28;20115;-60
2023/05/29 12:56:42;;;;;;;6.75;4.47;;;23.80;90.90;;;;;;5049777;28;20446;-59